Terminal Aerodrome Forecast
Issued by NWS Grand Forks, ND

Home | Current Version | Previous Version | Text Only | Print | Product List | Glossary Off
Versions: 1 2 3 4 5 6 7 8 9 10 11 12 13 14 15 16 17

892
FTUS43 KFGF 210520
TAFFAR
TAF
KFAR 210520Z 2106/2206 01010KT 6SM -RA BR SCT008 BKN015 OVC025
     FM210800 36010KT 5SM -RA BR BKN010 OVC020
     FM211100 35010KT 6SM -RA OVC010
     FM211700 34014G22KT 6SM -RA OVC015
     FM212200 33014KT P6SM BKN020 OVC035=

USA.gov is the U.S. government's official web portal to all federal, state and local government web resources and services.